Pride Of Burgundy — MQSQ9 — position and weather

sailwx.info

Track history (hours):
 
Tides and Currents Weather Stations Pressure Air Temp Water Temp Dewpoint Dewpoint Depression Visibility Wind Speed Wind Dir Waves Ship Positions

Pride Of Burgundy

Operator: P & O Ferries

Last reported at 2017-Mar-30 22:33 UTC. Time now 2017-Mar-30 22:51 UTC.
Position N 50°58' E 001°51'.

Length 180 m; draft 6.2 m.

Type: Passenger vessel. MMSI: 232001470.

Date/timePositionNaut miles runAvg speedWind from/ knotsBaromVisibWave heightAir tempDewpointWater temp
2017-Mar-30 22:33N 50°58' E 001°51'0 0.0
2017-Mar-30 21:33N 50°58' E 001°51'0 0.0
2017-Mar-30 20:33N 50°58' E 001°51'3 2.7
2017-Mar-30 19:33N 50°58' E 001°47'1817.9
2017-Mar-30 18:33N 51°07' E 001°22'1 1.2
2017-Mar-30 17:33N 51°07' E 001°20'1716.7
2017-Mar-30 16:33N 50°59' E 001°43'3 3.1
2017-Mar-30 15:33N 50°59' E 001°38'5 5.1
2017-Mar-30 14:34N 51°02' E 001°32'9 8.3
2017-Mar-30 13:31N 51°07' E 001°20'7 7.4
2017-Mar-30 12:33N 51°07' E 001°32'1514.9
2017-Mar-30 11:33N 50°58' E 001°51'0 0.1
2017-Mar-30 10:33N 50°58' E 001°51'1515.5
2017-Mar-30 09:33N 51°04' E 001°28'6 6.3
2017-Mar-30 08:33N 51°07' E 001°20'6 6.3
2017-Mar-30 07:33N 51°04' E 001°29'1515.3
2017-Mar-30 06:33N 50°58' E 001°51'1 1.1
2017-Mar-30 05:33N 50°58' E 001°49'1818.2
2017-Mar-30 04:33N 51°06' E 001°23'2 2.2
2017-Mar-30 03:33N 51°07' E 001°20'6 6.3
2017-Mar-30 02:33N 51°06' E 001°30'1515.3
2017-Mar-30 01:34N 50°58' E 001°51'0 0.1
2017-Mar-30 00:34N 50°58' E 001°51'0 0.0
2017-Mar-29 23:33N 50°58' E 001°51'0 0.0
2017-Mar-29 22:34N 50°58' E 001°51'0 0.0
2017-Mar-29 21:33N 50°58' E 001°51'0 0.0
2017-Mar-29 20:33N 50°58' E 001°51'1 1.4
2017-Mar-29 19:33N 50°58' E 001°49'1717.2
2017-Mar-29 18:33N 51°05' E 001°24'3 3.2
2017-Mar-29 17:33N 51°07' E 001°20'1212.1
2017-Mar-29 16:34N 51°02' E 001°37'10 9.5
2017-Mar-29 15:33N 50°58' E 001°51'9 8.6
2017-Mar-29 14:33N 51°00' E 001°38'1313.2
2017-Mar-29 13:33N 51°07' E 001°20'5 4.7
2017-Mar-29 12:34N 51°06' E 001°27'1716.7
2017-Mar-29 11:33N 50°58' E 001°51'0 0.3
2017-Mar-29 10:33N 50°58' E 001°51'1616.4
2017-Mar-29 09:33N 51°04' E 001°27'5 5.2
2017-Mar-29 08:33N 51°07' E 001°20'9 9.5
2017-Mar-29 07:34N 51°03' E 001°34'1212.1
2017-Mar-29 06:33N 50°58' E 001°51'4 3.5
2017-Mar-29 05:33N 50°58' E 001°45'1818.0
2017-Mar-29 04:32N 51°07' E 001°20'0 0.2
2017-Mar-29 03:33N 51°07' E 001°20'7 7.3
2017-Mar-29 02:34N 51°06' E 001°32'1514.9
2017-Mar-29 01:33N 50°58' E 001°51'0 0.2
2017-Mar-29 00:33N 50°58' E 001°52'0 0.0
2017-Mar-28 23:33N 50°58' E 001°52'0 0.0
2017-Mar-28 22:33N 50°58' E 001°52'0 0.0
2017-Mar-28 21:34N 50°58' E 001°52'0 0.0
2017-Mar-28 20:33N 50°58' E 001°52'3 2.5
2017-Mar-28 19:33N 50°58' E 001°48'1818.0
2017-Mar-28 18:33N 51°07' E 001°22'2 1.7
2017-Mar-28 17:33N 51°07' E 001°20'1414.5
2017-Mar-28 16:34N 51°01' E 001°40'7 7.2
2017-Mar-28 15:33N 50°58' E 001°51'9 8.8
2017-Mar-28 14:33N 50°60' E 001°37'1312.9
2017-Mar-28 13:32N 51°07' E 001°20'5 5.3
2017-Mar-28 12:34N 51°06' E 001°28'1616.2
2017-Mar-28 11:33N 50°58' E 001°51'0 0.2
2017-Mar-28 10:34N 50°58' E 001°51'1918.6
2017-Mar-28 09:33N 51°06' E 001°24'3 2.7
2017-Mar-28 08:33N 51°07' E 001°20'10 9.6
2017-Mar-28 07:33N 51°02' E 001°33'1212.1
2017-Mar-28 06:33N 50°58' E 001°51'3 3.1
2017-Mar-28 05:33N 50°58' E 001°46'1918.6
2017-Mar-28 04:33N 51°07' E 001°20'0 0.3
2017-Mar-28 03:34N 51°07' E 001°20'8 8.4
2017-Mar-28 02:33N 51°05' E 001°33'1313.2
2017-Mar-28 01:34N 50°58' E 001°51'0 0.0
2017-Mar-28 00:33N 50°58' E 001°51'0 0.0
2017-Mar-27 23:33N 50°58' E 001°51'0 0.0
2017-Mar-27 22:33N 50°58' E 001°51'0 0.0
2017-Mar-27 21:33N 50°58' E 001°51'0 0.0
2017-Mar-27 20:33N 50°58' E 001°51'0 0.0
2017-Mar-27 19:33N 50°58' E 001°51'2210.7
2017-Mar-27 17:33N 51°07' E 001°20'1414.3
2017-Mar-27 16:34N 51°00' E 001°40'8 7.5
2017-Mar-27 15:34N 50°58' E 001°51'10 9.6
2017-Mar-27 14:33N 50°60' E 001°36'1312.6
2017-Mar-27 13:33N 51°07' E 001°20'5 4.7
2017-Mar-27 12:33N 51°06' E 001°27'1716.8
2017-Mar-27 11:33N 50°58' E 001°51'0 0.0
2017-Mar-27 10:34N 50°58' E 001°51'1919.0
2017-Mar-27 09:33N 51°06' E 001°23'2 2.5
2017-Mar-27 08:33N 51°07' E 001°20'1010.3
2017-Mar-27 07:33N 51°04' E 001°35'1111.4
2017-Mar-27 06:33N 50°58' E 001°51'0 0.0
2017-Mar-27 05:33N 50°58' E 001°51'0 0.0
2017-Mar-27 04:33N 50°58' E 001°51'0 0.0
2017-Mar-27 03:33N 50°58' E 001°51'0 0.0
2017-Mar-27 02:33N 50°58' E 001°51'0 0.0
2017-Mar-27 01:33N 50°58' E 001°51'0 0.0
2017-Mar-27 00:33N 50°58' E 001°51'0 0.0
2017-Mar-26 23:33N 50°58' E 001°51'0 0.0
2017-Mar-26 22:33N 50°58' E 001°51'0 0.0
2017-Mar-26 21:33N 50°58' E 001°51'0 0.0
2017-Mar-26 20:33N 50°58' E 001°51'1 1.2
2017-Mar-26 19:33N 50°58' E 001°49'1817.8
2017-Mar-26 18:34N 51°06' E 001°24'2 2.2
2017-Mar-26 17:33N 51°07' E 001°21'2019.7
2017-Mar-26 16:33N 50°58' E 001°49'1 1.5
2017-Mar-26 15:33N 50°58' E 001°51'9 8.8
2017-Mar-26 14:33N 50°58' E 001°37'1414.2
2017-Mar-26 13:33N 51°07' E 001°20'0 0.0
2017-Mar-26 12:32N 51°07' E 001°20'0 0.0
2017-Mar-26 11:33N 51°07' E 001°20'0 0.0
2017-Mar-26 10:33N 51°07' E 001°20'0 0.0
2017-Mar-26 09:33N 51°07' E 001°20'0 0.0
2017-Mar-26 08:33N 51°07' E 001°20'0 0.0
2017-Mar-26 07:33N 51°07' E 001°20'0 0.0
2017-Mar-26 06:33N 51°07' E 001°20'0 0.0
2017-Mar-26 05:33N 51°07' E 001°20'0 0.0
2017-Mar-26 04:33N 51°07' E 001°20'0 0.0
2017-Mar-26 03:33N 51°07' E 001°20'0 0.0
2017-Mar-26 02:33N 51°07' E 001°20'0 0.0
2017-Mar-26 01:33N 51°07' E 001°20'0 0.0
2017-Mar-26 00:33N 51°07' E 001°20'0 0.0
2017-Mar-25 23:33N 51°07' E 001°20'0 0.0
2017-Mar-25 22:33N 51°07' E 001°20'0 0.0
2017-Mar-25 21:33N 51°07' E 001°20'0 0.0
2017-Mar-25 20:33N 51°07' E 001°20'0 0.0
2017-Mar-25 19:34N 51°07' E 001°20'0 0.0
2017-Mar-25 18:33N 51°07' E 001°20'0 0.0
2017-Mar-25 17:33N 51°07' E 001°20'0 0.0
2017-Mar-25 16:33N 51°07' E 001°20'9 9.5
2017-Mar-25 15:33N 51°09' E 001°35'2019.8
2017-Mar-25 14:33N 51°25' E 001°53'1919.5
2017-Mar-25 13:33N 51°39' E 002°15'1918.9
2017-Mar-25 12:33N 51°53' E 002°36'1918.8
2017-Mar-25 11:33N 52°12' E 002°40'2019.7
2017-Mar-25 10:33N 52°29' E 002°56'2120.5
2017-Mar-25 09:33N 52°48' E 003°10'2120.8
2017-Mar-25 08:33N 53°07' E 003°23'1918.7
2017-Mar-25 07:33N 53°25' E 003°31'2020.4
2017-Mar-25 06:33N 53°44' E 003°42'2019.8
2017-Mar-25 05:33N 53°56' E 004°10'1616.3
2017-Mar-25 04:34N 54°07' E 004°29'2019.9
2017-Mar-25 03:34N 54°27' E 004°37'2019.8
2017-Mar-25 02:33N 54°44' E 004°54'2020.1
2017-Mar-25 01:33N 55°01' E 005°13'2020.0
2017-Mar-25 00:34N 55°18' E 005°31'2019.9
2017-Mar-24 23:33N 55°34' E 005°52'1918.6
2017-Mar-24 22:33N 55°51' E 006°05'2519.5
2017-Mar-24 21:16N 56°10' E 006°36'1419.6
2017-Mar-24 20:33N 56°20' E 006°52'2019.5
2017-Mar-24 19:32N 56°36' E 007°14'1919.7
2017-Mar-24 18:33N 56°51' E 007°36'7719.2
2017-Mar-24 14:34N 57°38' E 009°29'2019.4
2017-Mar-24 13:33N 57°44' E 010°03'2019.7
2017-Mar-24 12:33N 57°49' E 010°39'1918.8
2017-Mar-24 11:33N 57°38' E 011°06'1919.4
2017-Mar-24 10:33N 57°23' E 011°29'2020.3
2017-Mar-24 09:34N 57°04' E 011°43'2019.9
2017-Mar-24 08:33N 56°45' E 011°56'1919.5
2017-Mar-24 07:33N 56°26' E 012°05'2020.2
2017-Mar-24 06:34N 56°10' E 012°27'1717.3
2017-Mar-24 05:33N 55°54' E 012°39'1818.1
2017-Mar-24 04:33N 55°36' E 012°42'1312.7
2017-Mar-24 03:34N 55°24' E 012°41'1716.6
2017-Mar-24 02:33N 55°12' E 013°02'2020.6
2017-Mar-24 01:34N 54°58' E 013°28'2019.7
2017-Mar-24 00:33N 54°45' E 013°54'1817.9
2017-Mar-23 23:32N 54°38' E 014°23'1919.0
2017-Mar-23 22:33N 54°42' E 014°55'27 9.0
2017-Mar-23 19:32N 54°45' E 015°41'7712.8
2017-Mar-23 13:31N 54°60' E 017°53'1616.9
2017-Mar-23 12:34N 55°00' E 018°21'1716.5
2017-Mar-23 11:34N 54°55' E 018°48'1413.7
2017-Mar-23 10:34N 54°42' E 018°59'1414.4
2017-Mar-23 09:34N 54°30' E 018°46'8 7.5
2017-Mar-23 08:34N 54°23' E 018°40'1 0.8
2017-Mar-23 07:31N 54°23' E 018°40'0 0.0
2017-Mar-23 06:31N 54°23' E 018°40'0 0.0
2017-Mar-23 05:31N 54°23' E 018°40'0 0.0
2017-Mar-23 04:31N 54°23' E 018°40'0 0.0
2017-Mar-23 03:31N 54°23' E 018°40'0 0.0
2017-Mar-23 02:31N 54°23' E 018°40'0 0.0
2017-Mar-23 01:31N 54°23' E 018°40'0 0.0
2017-Mar-23 00:31N 54°23' E 018°40'0 0.0
2017-Mar-22 23:31N 54°23' E 018°40'0 0.0
2017-Mar-22 22:31N 54°23' E 018°40'0 0.0
2017-Mar-22 21:31N 54°23' E 018°40'0 0.0
2017-Mar-22 20:31N 54°23' E 018°40'0 0.0
2017-Mar-22 19:31N 54°23' E 018°40'0 0.0
2017-Mar-22 18:31N 54°23' E 018°40'0 0.0
2017-Mar-22 17:31N 54°23' E 018°40'0 0.0
2017-Mar-22 16:31N 54°23' E 018°40'0 0.0
2017-Mar-22 15:31N 54°23' E 018°40'0 0.0
2017-Mar-22 14:31N 54°23' E 018°40'0 0.0
2017-Mar-22 13:31N 54°23' E 018°40'0 0.0
2017-Mar-22 12:31N 54°23' E 018°40'0 0.0
2017-Mar-22 11:31N 54°23' E 018°40'0 0.0
2017-Mar-22 10:31N 54°23' E 018°40'0 0.0
2017-Mar-22 09:31N 54°23' E 018°40'0 0.0
2017-Mar-22 08:31N 54°23' E 018°40'0 0.0
2017-Mar-22 07:31N 54°23' E 018°40'0 0.0
2017-Mar-22 06:31N 54°23' E 018°40'0 0.0
2017-Mar-22 05:31N 54°23' E 018°40'0 0.0
2017-Mar-22 04:31N 54°23' E 018°40'0 0.0
2017-Mar-22 03:31N 54°23' E 018°40'0 0.0
2017-Mar-22 02:31N 54°23' E 018°40'0 0.0
2017-Mar-22 01:31N 54°23' E 018°40'0 0.0
2017-Mar-22 00:31N 54°23' E 018°40'0 0.0
2017-Mar-21 23:31N 54°23' E 018°40'0 0.0
2017-Mar-21 22:31N 54°23' E 018°40'0 0.0
2017-Mar-21 21:31N 54°23' E 018°40'0 0.0
2017-Mar-21 20:31N 54°23' E 018°40'0 0.2
2017-Mar-21 19:31N 54°23' E 018°39'0 0.0
2017-Mar-21 18:31N 54°23' E 018°39'0 0.0
2017-Mar-21 17:31N 54°23' E 018°39'0 0.0
2017-Mar-21 16:31N 54°23' E 018°39'0 0.0
2017-Mar-21 15:31N 54°23' E 018°39'0 0.0
2017-Mar-21 14:31N 54°23' E 018°39'0 0.0
2017-Mar-21 13:31N 54°23' E 018°39'0 0.0
2017-Mar-21 12:31N 54°23' E 018°39'0 0.0
2017-Mar-21 11:31N 54°23' E 018°39'0 0.0
2017-Mar-21 10:31N 54°23' E 018°39'0 0.0
2017-Mar-21 09:31N 54°23' E 018°39'0 0.0
2017-Mar-21 08:31N 54°23' E 018°39'0 0.0
2017-Mar-21 07:31N 54°23' E 018°39'0 0.0
2017-Mar-21 06:31N 54°23' E 018°39'0 0.0
2017-Mar-21 05:31N 54°23' E 018°39'0 0.0
2017-Mar-21 04:31N 54°23' E 018°39'0 0.0
2017-Mar-21 03:31N 54°23' E 018°39'0 0.0
2017-Mar-21 02:31N 54°23' E 018°39'0 0.0
2017-Mar-21 01:31N 54°23' E 018°39'0 0.0
2017-Mar-21 00:31N 54°23' E 018°39'0 0.0
2017-Mar-20 23:31N 54°23' E 018°39'  
Track history (hours):
 
Tides and Currents Weather Stations Pressure Air Temp Water Temp Dewpoint Dewpoint Depression Visibility Wind Speed Wind Dir Waves Ship Positions

Pride Of Burgundy

Operator: P & O Ferries

Last reported at 2017-Mar-30 22:33 UTC. Time now 2017-Mar-30 22:51 UTC.
Position N 50°58' E 001°51'.

Length 180 m; draft 6.2 m.

Type: Passenger vessel. MMSI: 232001470.

Date/timePositionNaut miles runAvg speedWind from/ knotsBaromVisibWave heightAir tempDewpointWater temp
2017-Mar-30 22:33N 50°58' E 001°51'0 0.0
2017-Mar-30 21:33N 50°58' E 001°51'0 0.0
2017-Mar-30 20:33N 50°58' E 001°51'3 2.7
2017-Mar-30 19:33N 50°58' E 001°47'1817.9
2017-Mar-30 18:33N 51°07' E 001°22'1 1.2
2017-Mar-30 17:33N 51°07' E 001°20'1716.7
2017-Mar-30 16:33N 50°59' E 001°43'3 3.1
2017-Mar-30 15:33N 50°59' E 001°38'5 5.1
2017-Mar-30 14:34N 51°02' E 001°32'9 8.3
2017-Mar-30 13:31N 51°07' E 001°20'7 7.4
2017-Mar-30 12:33N 51°07' E 001°32'1514.9
2017-Mar-30 11:33N 50°58' E 001°51'0 0.1
2017-Mar-30 10:33N 50°58' E 001°51'1515.5
2017-Mar-30 09:33N 51°04' E 001°28'6 6.3
2017-Mar-30 08:33N 51°07' E 001°20'6 6.3
2017-Mar-30 07:33N 51°04' E 001°29'1515.3
2017-Mar-30 06:33N 50°58' E 001°51'1 1.1
2017-Mar-30 05:33N 50°58' E 001°49'1818.2
2017-Mar-30 04:33N 51°06' E 001°23'2 2.2
2017-Mar-30 03:33N 51°07' E 001°20'6 6.3
2017-Mar-30 02:33N 51°06' E 001°30'1515.3
2017-Mar-30 01:34N 50°58' E 001°51'0 0.1
2017-Mar-30 00:34N 50°58' E 001°51'0 0.0
2017-Mar-29 23:33N 50°58' E 001°51'0 0.0
2017-Mar-29 22:34N 50°58' E 001°51'0 0.0
2017-Mar-29 21:33N 50°58' E 001°51'0 0.0
2017-Mar-29 20:33N 50°58' E 001°51'1 1.4
2017-Mar-29 19:33N 50°58' E 001°49'1717.2
2017-Mar-29 18:33N 51°05' E 001°24'3 3.2
2017-Mar-29 17:33N 51°07' E 001°20'1212.1
2017-Mar-29 16:34N 51°02' E 001°37'10 9.5
2017-Mar-29 15:33N 50°58' E 001°51'9 8.6
2017-Mar-29 14:33N 51°00' E 001°38'1313.2
2017-Mar-29 13:33N 51°07' E 001°20'5 4.7
2017-Mar-29 12:34N 51°06' E 001°27'1716.7
2017-Mar-29 11:33N 50°58' E 001°51'0 0.3
2017-Mar-29 10:33N 50°58' E 001°51'1616.4
2017-Mar-29 09:33N 51°04' E 001°27'5 5.2
2017-Mar-29 08:33N 51°07' E 001°20'9 9.5
2017-Mar-29 07:34N 51°03' E 001°34'1212.1
2017-Mar-29 06:33N 50°58' E 001°51'4 3.5
2017-Mar-29 05:33N 50°58' E 001°45'1818.0
2017-Mar-29 04:32N 51°07' E 001°20'0 0.2
2017-Mar-29 03:33N 51°07' E 001°20'7 7.3
2017-Mar-29 02:34N 51°06' E 001°32'1514.9
2017-Mar-29 01:33N 50°58' E 001°51'0 0.2
2017-Mar-29 00:33N 50°58' E 001°52'0 0.0
2017-Mar-28 23:33N 50°58' E 001°52'0 0.0
2017-Mar-28 22:33N 50°58' E 001°52'0 0.0
2017-Mar-28 21:34N 50°58' E 001°52'0 0.0
2017-Mar-28 20:33N 50°58' E 001°52'3 2.5
2017-Mar-28 19:33N 50°58' E 001°48'1818.0
2017-Mar-28 18:33N 51°07' E 001°22'2 1.7
2017-Mar-28 17:33N 51°07' E 001°20'1414.5
2017-Mar-28 16:34N 51°01' E 001°40'7 7.2
2017-Mar-28 15:33N 50°58' E 001°51'9 8.8
2017-Mar-28 14:33N 50°60' E 001°37'1312.9
2017-Mar-28 13:32N 51°07' E 001°20'5 5.3
2017-Mar-28 12:34N 51°06' E 001°28'1616.2
2017-Mar-28 11:33N 50°58' E 001°51'0 0.2
2017-Mar-28 10:34N 50°58' E 001°51'1918.6
2017-Mar-28 09:33N 51°06' E 001°24'3 2.7
2017-Mar-28 08:33N 51°07' E 001°20'10 9.6
2017-Mar-28 07:33N 51°02' E 001°33'1212.1
2017-Mar-28 06:33N 50°58' E 001°51'3 3.1
2017-Mar-28 05:33N 50°58' E 001°46'1918.6
2017-Mar-28 04:33N 51°07' E 001°20'0 0.3
2017-Mar-28 03:34N 51°07' E 001°20'8 8.4
2017-Mar-28 02:33N 51°05' E 001°33'1313.2
2017-Mar-28 01:34N 50°58' E 001°51'0 0.0
2017-Mar-28 00:33N 50°58' E 001°51'0 0.0
2017-Mar-27 23:33N 50°58' E 001°51'0 0.0
2017-Mar-27 22:33N 50°58' E 001°51'0 0.0
2017-Mar-27 21:33N 50°58' E 001°51'0 0.0
2017-Mar-27 20:33N 50°58' E 001°51'0 0.0
2017-Mar-27 19:33N 50°58' E 001°51'2210.7
2017-Mar-27 17:33N 51°07' E 001°20'1414.3
2017-Mar-27 16:34N 51°00' E 001°40'8 7.5
2017-Mar-27 15:34N 50°58' E 001°51'10 9.6
2017-Mar-27 14:33N 50°60' E 001°36'1312.6
2017-Mar-27 13:33N 51°07' E 001°20'5 4.7
2017-Mar-27 12:33N 51°06' E 001°27'1716.8
2017-Mar-27 11:33N 50°58' E 001°51'0 0.0
2017-Mar-27 10:34N 50°58' E 001°51'1919.0
2017-Mar-27 09:33N 51°06' E 001°23'2 2.5
2017-Mar-27 08:33N 51°07' E 001°20'1010.3
2017-Mar-27 07:33N 51°04' E 001°35'1111.4
2017-Mar-27 06:33N 50°58' E 001°51'0 0.0
2017-Mar-27 05:33N 50°58' E 001°51'0 0.0
2017-Mar-27 04:33N 50°58' E 001°51'0 0.0
2017-Mar-27 03:33N 50°58' E 001°51'0 0.0
2017-Mar-27 02:33N 50°58' E 001°51'0 0.0
2017-Mar-27 01:33N 50°58' E 001°51'0 0.0
2017-Mar-27 00:33N 50°58' E 001°51'0 0.0
2017-Mar-26 23:33N 50°58' E 001°51'0 0.0
2017-Mar-26 22:33N 50°58' E 001°51'0 0.0
2017-Mar-26 21:33N 50°58' E 001°51'0 0.0
2017-Mar-26 20:33N 50°58' E 001°51'1 1.2
2017-Mar-26 19:33N 50°58' E 001°49'1817.8
2017-Mar-26 18:34N 51°06' E 001°24'2 2.2
2017-Mar-26 17:33N 51°07' E 001°21'2019.7
2017-Mar-26 16:33N 50°58' E 001°49'1 1.5
2017-Mar-26 15:33N 50°58' E 001°51'9 8.8
2017-Mar-26 14:33N 50°58' E 001°37'1414.2
2017-Mar-26 13:33N 51°07' E 001°20'0 0.0
2017-Mar-26 12:32N 51°07' E 001°20'0 0.0
2017-Mar-26 11:33N 51°07' E 001°20'0 0.0
2017-Mar-26 10:33N 51°07' E 001°20'0 0.0
2017-Mar-26 09:33N 51°07' E 001°20'0 0.0
2017-Mar-26 08:33N 51°07' E 001°20'0 0.0
2017-Mar-26 07:33N 51°07' E 001°20'0 0.0
2017-Mar-26 06:33N 51°07' E 001°20'0 0.0
2017-Mar-26 05:33N 51°07' E 001°20'0 0.0
2017-Mar-26 04:33N 51°07' E 001°20'0 0.0
2017-Mar-26 03:33N 51°07' E 001°20'0 0.0
2017-Mar-26 02:33N 51°07' E 001°20'0 0.0
2017-Mar-26 01:33N 51°07' E 001°20'0 0.0
2017-Mar-26 00:33N 51°07' E 001°20'0 0.0
2017-Mar-25 23:33N 51°07' E 001°20'0 0.0
2017-Mar-25 22:33N 51°07' E 001°20'0 0.0
2017-Mar-25 21:33N 51°07' E 001°20'0 0.0
2017-Mar-25 20:33N 51°07' E 001°20'0 0.0
2017-Mar-25 19:34N 51°07' E 001°20'0 0.0
2017-Mar-25 18:33N 51°07' E 001°20'0 0.0
2017-Mar-25 17:33N 51°07' E 001°20'0 0.0
2017-Mar-25 16:33N 51°07' E 001°20'9 9.5
2017-Mar-25 15:33N 51°09' E 001°35'2019.8
2017-Mar-25 14:33N 51°25' E 001°53'1919.5
2017-Mar-25 13:33N 51°39' E 002°15'1918.9
2017-Mar-25 12:33N 51°53' E 002°36'1918.8
2017-Mar-25 11:33N 52°12' E 002°40'2019.7
2017-Mar-25 10:33N 52°29' E 002°56'2120.5
2017-Mar-25 09:33N 52°48' E 003°10'2120.8
2017-Mar-25 08:33N 53°07' E 003°23'1918.7
2017-Mar-25 07:33N 53°25' E 003°31'2020.4
2017-Mar-25 06:33N 53°44' E 003°42'2019.8
2017-Mar-25 05:33N 53°56' E 004°10'1616.3
2017-Mar-25 04:34N 54°07' E 004°29'2019.9
2017-Mar-25 03:34N 54°27' E 004°37'2019.8
2017-Mar-25 02:33N 54°44' E 004°54'2020.1
2017-Mar-25 01:33N 55°01' E 005°13'2020.0
2017-Mar-25 00:34N 55°18' E 005°31'2019.9
2017-Mar-24 23:33N 55°34' E 005°52'1918.6
2017-Mar-24 22:33N 55°51' E 006°05'2519.5
2017-Mar-24 21:16N 56°10' E 006°36'1419.6
2017-Mar-24 20:33N 56°20' E 006°52'2019.5
2017-Mar-24 19:32N 56°36' E 007°14'1919.7
2017-Mar-24 18:33N 56°51' E 007°36'7719.2
2017-Mar-24 14:34N 57°38' E 009°29'2019.4
2017-Mar-24 13:33N 57°44' E 010°03'2019.7
2017-Mar-24 12:33N 57°49' E 010°39'1918.8
2017-Mar-24 11:33N 57°38' E 011°06'1919.4
2017-Mar-24 10:33N 57°23' E 011°29'2020.3
2017-Mar-24 09:34N 57°04' E 011°43'2019.9
2017-Mar-24 08:33N 56°45' E 011°56'1919.5
2017-Mar-24 07:33N 56°26' E 012°05'2020.2
2017-Mar-24 06:34N 56°10' E 012°27'1717.3
2017-Mar-24 05:33N 55°54' E 012°39'1818.1
2017-Mar-24 04:33N 55°36' E 012°42'1312.7
2017-Mar-24 03:34N 55°24' E 012°41'1716.6
2017-Mar-24 02:33N 55°12' E 013°02'2020.6
2017-Mar-24 01:34N 54°58' E 013°28'2019.7
2017-Mar-24 00:33N 54°45' E 013°54'1817.9
2017-Mar-23 23:32N 54°38' E 014°23'1919.0
2017-Mar-23 22:33N 54°42' E 014°55'27 9.0
2017-Mar-23 19:32N 54°45' E 015°41'7712.8
2017-Mar-23 13:31N 54°60' E 017°53'1616.9
2017-Mar-23 12:34N 55°00' E 018°21'1716.5
2017-Mar-23 11:34N 54°55' E 018°48'1413.7
2017-Mar-23 10:34N 54°42' E 018°59'1414.4
2017-Mar-23 09:34N 54°30' E 018°46'8 7.5
2017-Mar-23 08:34N 54°23' E 018°40'1 0.8
2017-Mar-23 07:31N 54°23' E 018°40'0 0.0
2017-Mar-23 06:31N 54°23' E 018°40'0 0.0
2017-Mar-23 05:31N 54°23' E 018°40'0 0.0
2017-Mar-23 04:31N 54°23' E 018°40'0 0.0
2017-Mar-23 03:31N 54°23' E 018°40'0 0.0
2017-Mar-23 02:31N 54°23' E 018°40'0 0.0
2017-Mar-23 01:31N 54°23' E 018°40'0 0.0
2017-Mar-23 00:31N 54°23' E 018°40'0 0.0
2017-Mar-22 23:31N 54°23' E 018°40'0 0.0
2017-Mar-22 22:31N 54°23' E 018°40'0 0.0
2017-Mar-22 21:31N 54°23' E 018°40'0 0.0
2017-Mar-22 20:31N 54°23' E 018°40'0 0.0
2017-Mar-22 19:31N 54°23' E 018°40'0 0.0
2017-Mar-22 18:31N 54°23' E 018°40'0 0.0
2017-Mar-22 17:31N 54°23' E 018°40'0 0.0
2017-Mar-22 16:31N 54°23' E 018°40'0 0.0
2017-Mar-22 15:31N 54°23' E 018°40'0 0.0
2017-Mar-22 14:31N 54°23' E 018°40'0 0.0
2017-Mar-22 13:31N 54°23' E 018°40'0 0.0
2017-Mar-22 12:31N 54°23' E 018°40'0 0.0
2017-Mar-22 11:31N 54°23' E 018°40'0 0.0
2017-Mar-22 10:31N 54°23' E 018°40'0 0.0
2017-Mar-22 09:31N 54°23' E 018°40'0 0.0
2017-Mar-22 08:31N 54°23' E 018°40'0 0.0
2017-Mar-22 07:31N 54°23' E 018°40'0 0.0
2017-Mar-22 06:31N 54°23' E 018°40'0 0.0
2017-Mar-22 05:31N 54°23' E 018°40'0 0.0
2017-Mar-22 04:31N 54°23' E 018°40'0 0.0
2017-Mar-22 03:31N 54°23' E 018°40'0 0.0
2017-Mar-22 02:31N 54°23' E 018°40'0 0.0
2017-Mar-22 01:31N 54°23' E 018°40'0 0.0
2017-Mar-22 00:31N 54°23' E 018°40'0 0.0
2017-Mar-21 23:31N 54°23' E 018°40'0 0.0
2017-Mar-21 22:31N 54°23' E 018°40'0 0.0
2017-Mar-21 21:31N 54°23' E 018°40'0 0.0
2017-Mar-21 20:31N 54°23' E 018°40'0 0.2
2017-Mar-21 19:31N 54°23' E 018°39'0 0.0
2017-Mar-21 18:31N 54°23' E 018°39'0 0.0
2017-Mar-21 17:31N 54°23' E 018°39'0 0.0
2017-Mar-21 16:31N 54°23' E 018°39'0 0.0
2017-Mar-21 15:31N 54°23' E 018°39'0 0.0
2017-Mar-21 14:31N 54°23' E 018°39'0 0.0
2017-Mar-21 13:31N 54°23' E 018°39'0 0.0
2017-Mar-21 12:31N 54°23' E 018°39'0 0.0
2017-Mar-21 11:31N 54°23' E 018°39'0 0.0
2017-Mar-21 10:31N 54°23' E 018°39'0 0.0
2017-Mar-21 09:31N 54°23' E 018°39'0 0.0
2017-Mar-21 08:31N 54°23' E 018°39'0 0.0
2017-Mar-21 07:31N 54°23' E 018°39'0 0.0
2017-Mar-21 06:31N 54°23' E 018°39'0 0.0
2017-Mar-21 05:31N 54°23' E 018°39'0 0.0
2017-Mar-21 04:31N 54°23' E 018°39'0 0.0
2017-Mar-21 03:31N 54°23' E 018°39'0 0.0
2017-Mar-21 02:31N 54°23' E 018°39'0 0.0
2017-Mar-21 01:31N 54°23' E 018°39'0 0.0
2017-Mar-21 00:31N 54°23' E 018°39'0 0.0
2017-Mar-20 23:31N 54°23' E 018°39'  

Dump ship's entire track history